Terminal Aerodrome Forecast
Issued by NWS

Home | Current Version | Previous Version | Text Only | Print | Product List | Glossary On
Versions: 1 2 3 4 5 6 7 8 9 10 11 12 13 14 15 16 17 18 19 20 21
000
FTUS46 KSEW 201542 AAB
TAFBFI
TAF AMD
KBFI 201542Z 2016/2112 14009KT P6SM VCSH SCT020 OVC030
      TEMPO 2016/2020 6SM -SHRA BR SCT015 OVC025
     FM210000 15007KT P6SM -RA BKN040 OVC060
     FM211000 14007KT P6SM -RA OVC040 WS020/18045KT=

USA.gov is the U.S. government's official web portal to all federal, state and local government web resources and services.